createdAt,value
2022-08-07T00:01:43.746Z,3.83
2022-08-07T00:04:15.406Z,3.65
2022-08-07T00:06:51.808Z,3.53
2022-08-07T00:09:22.259Z,3.35
2022-08-07T00:11:56.216Z,3.80
2022-08-07T00:14:30.059Z,3.80
2022-08-07T00:16:59.411Z,3.72
2022-08-07T00:20:00.031Z,3.60
2022-08-07T00:22:24.926Z,3.65
2022-08-07T00:25:04.038Z,3.70
2022-08-07T00:27:51.750Z,4.15
2022-08-07T00:30:21.606Z,4.15
2022-08-07T00:32:54.410Z,3.67
2022-08-07T00:35:23.148Z,4.18
2022-08-07T00:37:51.135Z,4.00
2022-08-07T00:40:39.724Z,4.18
2022-08-07T00:43:09.734Z,3.92
2022-08-07T00:45:41.967Z,4.38
2022-08-07T00:48:14.198Z,3.70
2022-08-07T00:50:46.215Z,4.03
2022-08-07T00:53:18.515Z,4.22
2022-08-07T00:56:00.516Z,3.80
2022-08-07T00:58:31.537Z,4.22
2022-08-07T01:00:59.126Z,4.10
2022-08-07T01:03:55.640Z,4.63
2022-08-07T01:06:14.628Z,4.05
2022-08-07T01:08:53.039Z,4.40
2022-08-07T01:12:27.670Z,4.70
2022-08-07T01:14:10.342Z,3.90
2022-08-07T01:16:38.088Z,4.32
2022-08-07T01:19:10.847Z,4.45
2022-08-07T01:21:47.840Z,4.30
2022-08-07T01:24:18.773Z,4.72
2022-08-07T01:26:51.737Z,4.75
2022-08-07T01:29:20.303Z,4.35
2022-08-07T01:31:50.061Z,4.50
2022-08-07T01:34:19.016Z,4.70
2022-08-07T01:36:57.753Z,4.35
2022-08-07T01:39:39.632Z,4.88
2022-08-07T01:42:40.074Z,4.60
2022-08-07T01:44:56.488Z,4.68
2022-08-07T01:48:18.623Z,5.00
2022-08-07T01:50:13.315Z,4.80
2022-08-07T01:52:49.630Z,4.20
2022-08-07T01:55:24.210Z,5.00
2022-08-07T01:58:06.562Z,4.68
2022-08-07T02:00:48.948Z,4.70
2022-08-07T02:03:21.875Z,5.30
2022-08-07T02:05:59.775Z,5.25
2022-08-07T02:08:30.250Z,4.85
2022-08-07T02:10:59.414Z,4.90
2022-08-07T02:13:58.043Z,4.82
2022-08-07T02:16:17.884Z,5.35
2022-08-07T02:18:48.542Z,5.20
2022-08-07T02:21:19.207Z,4.68
2022-08-07T02:23:49.366Z,5.13
2022-08-07T02:26:32.951Z,4.90
2022-08-07T02:29:03.025Z,5.57
2022-08-07T02:31:30.919Z,5.40
2022-08-07T02:34:02.966Z,5.82
2022-08-07T02:36:33.280Z,5.20
2022-08-07T02:39:16.376Z,5.40
2022-08-07T02:41:50.521Z,5.65
2022-08-07T02:44:18.678Z,5.50
2022-08-07T02:46:52.736Z,5.35
2022-08-07T02:49:29.157Z,5.63
2022-08-07T02:52:09.843Z,5.75
2022-08-07T02:54:42.677Z,6.18
2022-08-07T02:57:13.573Z,6.00
2022-08-07T02:59:45.423Z,5.43
2022-08-07T03:02:23.347Z,6.18
2022-08-07T03:04:51.363Z,6.03
2022-08-07T03:07:21.576Z,6.75
2022-08-07T03:10:08.914Z,6.22
2022-08-07T03:12:37.548Z,6.47
2022-08-07T03:15:08.185Z,6.13
2022-08-07T03:17:53.019Z,6.85
2022-08-07T03:20:22.272Z,6.10
2022-08-07T03:22:51.443Z,6.75
2022-08-07T03:25:21.169Z,6.45
2022-08-07T03:27:59.469Z,6.45
2022-08-07T03:30:37.031Z,7.28
2022-08-07T03:33:07.914Z,6.78
2022-08-07T03:35:37.901Z,7.22
2022-08-07T03:38:13.365Z,6.60
2022-08-07T03:40:44.291Z,6.50
2022-08-07T03:43:14.345Z,7.18
2022-08-07T03:45:43.707Z,7.30
2022-08-07T03:48:15.574Z,7.53
2022-08-07T03:50:55.815Z,7.53
2022-08-07T03:54:01.918Z,7.45
2022-08-07T03:56:16.595Z,6.50
2022-08-07T03:59:08.385Z,7.65
2022-08-07T04:01:32.928Z,6.82
2022-08-07T04:04:04.861Z,6.88
2022-08-07T04:06:38.473Z,7.30
2022-08-07T04:09:06.286Z,7.93
2022-08-07T04:12:23.848Z,7.95
2022-08-07T04:14:37.399Z,8.88
2022-08-07T04:17:16.515Z,8.35
2022-08-07T04:19:52.781Z,9.48
2022-08-07T04:22:23.162Z,8.93
2022-08-07T04:24:51.123Z,8.70
2022-08-07T04:27:35.882Z,8.93
2022-08-07T04:30:11.778Z,9.27
2022-08-07T04:32:49.160Z,8.95
2022-08-07T04:35:26.270Z,10.18
2022-08-07T04:38:02.961Z,8.48
2022-08-07T04:40:32.887Z,9.10
2022-08-07T04:43:03.547Z,10.43
2022-08-07T04:45:57.812Z,10.40
2022-08-07T04:48:30.003Z,10.60
2022-08-07T04:51:03.329Z,9.98
2022-08-07T04:54:01.059Z,11.07
2022-08-07T04:58:24.304Z,10.25
2022-08-07T05:00:10.858Z,11.20
2022-08-07T05:04:35.834Z,10.90
2022-08-07T05:07:20.723Z,10.77
2022-08-07T05:09:52.216Z,10.48
2022-08-07T05:12:27.280Z,10.38
2022-08-07T05:15:04.530Z,11.10
2022-08-07T05:17:52.290Z,11.43
2022-08-07T05:20:25.743Z,12.98
2022-08-07T05:22:55.705Z,12.13
2022-08-07T05:25:25.659Z,11.63
2022-08-07T05:28:20.468Z,12.25
2022-08-07T05:30:52.830Z,11.90
2022-08-07T05:33:21.563Z,11.60
2022-08-07T05:35:49.866Z,12.25
2022-08-07T05:39:01.457Z,12.25
2022-08-07T05:41:14.010Z,12.10
2022-08-07T05:44:08.537Z,11.93
2022-08-07T05:46:33.006Z,11.68
2022-08-07T05:49:00.891Z,11.40
2022-08-07T05:51:40.749Z,11.27
2022-08-07T05:54:30.131Z,11.75
2022-08-07T05:56:57.539Z,11.70
2022-08-07T05:59:27.445Z,11.02
2022-08-07T06:01:57.960Z,12.05
2022-08-07T06:07:03.683Z,11.40
2022-08-07T06:10:04.193Z,11.80
2022-08-07T06:12:20.974Z,12.43
2022-08-07T06:14:49.862Z,11.00
2022-08-07T06:17:22.283Z,11.23
2022-08-07T06:20:04.000Z,12.50
2022-08-07T06:22:38.736Z,10.52
2022-08-07T06:25:10.141Z,11.25
2022-08-07T06:28:00.074Z,10.77
2022-08-07T06:30:35.454Z,11.38
2022-08-07T06:33:05.769Z,10.68
2022-08-07T06:35:47.708Z,10.40
2022-08-07T06:38:30.848Z,9.75
2022-08-07T06:41:00.188Z,10.40
2022-08-07T06:43:39.171Z,9.55
2022-08-07T06:46:11.550Z,9.45
2022-08-07T06:48:42.015Z,10.65
2022-08-07T06:51:15.468Z,10.00
2022-08-07T06:55:32.878Z,8.77
2022-08-07T06:56:51.409Z,8.85
2022-08-07T07:00:12.872Z,8.38
2022-08-07T07:02:09.392Z,7.82
2022-08-07T07:04:43.578Z,8.15
2022-08-07T07:07:59.647Z,9.05
2022-08-07T07:10:10.440Z,7.60
2022-08-07T07:12:41.823Z,7.97
2022-08-07T07:15:23.877Z,7.50
2022-08-07T07:17:55.660Z,7.85
2022-08-07T07:20:30.527Z,7.25
2022-08-07T07:24:08.527Z,6.13
2022-08-07T07:26:33.920Z,6.40
2022-08-07T07:28:48.530Z,7.28
2022-08-07T07:31:30.431Z,5.95
2022-08-07T07:34:08.445Z,5.50
2022-08-07T07:36:40.552Z,4.95
2022-08-07T07:39:08.882Z,4.40
2022-08-07T07:42:01.870Z,4.63
2022-08-07T07:44:28.096Z,3.20
2022-08-07T07:47:02.199Z,4.00
2022-08-07T07:50:36.106Z,4.13
2022-08-07T07:52:31.256Z,3.90
2022-08-07T07:54:59.565Z,3.95
2022-08-07T07:57:44.089Z,3.85
2022-08-07T08:00:29.987Z,3.75
2022-08-07T08:03:07.921Z,4.15
2022-08-07T08:05:50.771Z,3.72
2022-08-07T08:08:35.212Z,3.60
2022-08-07T08:11:05.165Z,3.30
2022-08-07T08:13:33.190Z,3.30
2022-08-07T08:16:05.931Z,2.95
2022-08-07T08:18:33.658Z,3.20
2022-08-07T08:21:03.824Z,3.13
2022-08-07T08:23:54.591Z,3.38
2022-08-07T08:26:40.364Z,3.30
2022-08-07T08:29:08.426Z,3.50
2022-08-07T08:31:58.749Z,3.97
2022-08-07T08:34:27.276Z,3.45
2022-08-07T08:36:58.130Z,2.97
2022-08-07T08:39:39.299Z,3.15
2022-08-07T08:42:22.159Z,3.17
2022-08-07T08:45:04.171Z,2.90
2022-08-07T08:47:47.442Z,2.70
2022-08-07T08:50:34.777Z,2.40
2022-08-07T08:53:10.383Z,2.47
2022-08-07T08:55:53.764Z,2.67
2022-08-07T08:58:29.899Z,2.28
2022-08-07T09:01:01.314Z,1.83
2022-08-07T09:03:52.977Z,2.10
2022-08-07T09:06:27.792Z,1.70
2022-08-07T09:09:01.570Z,2.15
2022-08-07T09:11:50.843Z,2.20
2022-08-07T09:14:27.570Z,1.65
2022-08-07T09:17:00.895Z,1.75
2022-08-07T09:19:53.438Z,1.75
2022-08-07T09:24:32.667Z,1.90
2022-08-07T09:25:24.426Z,1.75
2022-08-07T09:28:00.159Z,1.95
2022-08-07T09:30:32.391Z,2.35
2022-08-07T09:33:05.506Z,2.17
2022-08-07T09:36:03.404Z,2.00
2022-08-07T09:38:37.924Z,1.85
2022-08-07T09:41:08.949Z,1.92
2022-08-07T09:44:05.910Z,1.80
2022-08-07T09:47:51.296Z,1.85
2022-08-07T09:50:02.148Z,1.88
2022-08-07T09:52:34.302Z,2.08
2022-08-07T09:55:16.979Z,2.22
2022-08-07T09:58:11.626Z,2.28
2022-08-07T10:00:54.512Z,1.90
2022-08-07T10:04:05.693Z,1.77
2022-08-07T10:06:32.590Z,2.10
2022-08-07T10:09:11.005Z,1.70
2022-08-07T10:12:01.695Z,1.70
2022-08-07T10:14:55.186Z,2.00
2022-08-07T10:18:01.804Z,2.10
2022-08-07T10:20:34.611Z,2.00
2022-08-07T10:23:11.178Z,1.70
2022-08-07T10:25:51.934Z,2.03
2022-08-07T10:28:43.399Z,2.00
2022-08-07T10:31:28.181Z,1.80
2022-08-07T10:34:15.117Z,1.92
2022-08-07T10:36:49.353Z,1.90
2022-08-07T10:39:25.945Z,1.70
2022-08-07T10:42:20.868Z,1.90
2022-08-07T10:45:02.165Z,1.63
2022-08-07T10:47:52.686Z,1.90
2022-08-07T10:50:26.475Z,1.80
2022-08-07T10:52:59.651Z,1.90
2022-08-07T10:55:38.959Z,1.63
2022-08-07T10:58:13.921Z,1.77
2022-08-07T11:00:50.596Z,1.70
2022-08-07T11:03:28.125Z,1.73
2022-08-07T11:06:09.386Z,1.67
2022-08-07T11:08:51.755Z,1.70
2022-08-07T11:11:22.285Z,1.98
2022-08-07T11:14:45.363Z,1.52
2022-08-07T11:16:51.736Z,1.52
2022-08-07T11:19:27.432Z,1.58
2022-08-07T11:21:58.634Z,1.63
2022-08-07T11:24:34.482Z,1.42
2022-08-07T11:27:04.274Z,1.70
2022-08-07T11:29:41.883Z,1.80
2022-08-07T11:32:25.348Z,1.80
2022-08-07T11:34:56.084Z,1.33
2022-08-07T11:37:57.409Z,1.55
2022-08-07T11:40:28.225Z,1.55
2022-08-07T11:42:59.826Z,2.00
2022-08-07T11:45:35.767Z,1.85
2022-08-07T11:48:30.845Z,1.88
2022-08-07T11:51:09.769Z,1.52
2022-08-07T11:53:43.406Z,1.90
2022-08-07T11:56:46.461Z,1.75
2022-08-07T12:00:11.953Z,1.90
2022-08-07T12:02:30.442Z,1.67
2022-08-07T12:05:03.051Z,1.90
2022-08-07T12:07:40.204Z,1.65
2022-08-07T12:10:13.148Z,2.08
2022-08-07T12:12:44.399Z,2.17
2022-08-07T12:15:17.177Z,1.48
2022-08-07T12:18:08.204Z,1.45
2022-08-07T12:20:46.311Z,1.77
2022-08-07T12:24:07.184Z,1.88
2022-08-07T12:26:41.905Z,1.65
2022-08-07T12:29:29.372Z,1.63
2022-08-07T12:32:13.572Z,1.67
2022-08-07T12:34:49.100Z,1.65
2022-08-07T12:37:23.331Z,1.80
2022-08-07T12:39:57.519Z,1.90
2022-08-07T12:42:28.057Z,2.00
2022-08-07T12:44:58.552Z,1.90
2022-08-07T12:47:31.069Z,1.40
2022-08-07T12:50:05.187Z,1.67
2022-08-07T12:52:53.062Z,1.67
2022-08-07T12:55:24.926Z,1.77
2022-08-07T12:58:10.860Z,2.00
2022-08-07T13:00:50.323Z,1.77
2022-08-07T13:03:54.914Z,1.67
2022-08-07T13:06:27.868Z,1.70
2022-08-07T13:09:00.011Z,1.50
2022-08-07T13:12:01.807Z,1.58
2022-08-07T13:14:30.405Z,2.00
2022-08-07T13:17:05.262Z,1.80
2022-08-07T13:19:51.128Z,1.83
2022-08-07T13:22:28.370Z,1.80
2022-08-07T13:25:02.458Z,1.80
2022-08-07T13:28:11.178Z,2.13
2022-08-07T13:30:40.850Z,1.92
2022-08-07T13:34:33.615Z,1.88
2022-08-07T13:36:17.612Z,1.50
2022-08-07T13:38:48.588Z,1.95
2022-08-07T13:43:52.724Z,1.73
2022-08-07T13:46:28.309Z,2.08
2022-08-07T13:49:02.486Z,1.83
2022-08-07T13:52:22.960Z,1.80
2022-08-07T13:54:23.516Z,1.60
2022-08-07T13:56:56.184Z,1.70
2022-08-07T13:59:31.178Z,1.70
2022-08-07T14:02:07.528Z,2.10
2022-08-07T14:04:49.667Z,2.00
2022-08-07T14:07:18.939Z,1.60
2022-08-07T14:10:12.127Z,1.70
2022-08-07T14:12:41.659Z,1.92
2022-08-07T14:15:18.526Z,1.80
2022-08-07T14:18:23.733Z,1.88
2022-08-07T14:20:40.550Z,1.60
2022-08-07T14:23:31.221Z,1.50
2022-08-07T14:26:07.637Z,1.90
2022-08-07T14:28:57.662Z,2.00
2022-08-07T14:31:25.595Z,2.00
2022-08-07T14:34:19.983Z,1.70
2022-08-07T14:36:56.344Z,1.90
2022-08-07T14:40:16.163Z,2.10
2022-08-07T14:42:20.095Z,1.77
2022-08-07T14:44:52.213Z,1.85
2022-08-07T14:47:20.265Z,1.65
2022-08-07T14:49:57.251Z,2.00
2022-08-07T14:52:31.101Z,1.73
2022-08-07T14:55:00.176Z,2.00
2022-08-07T14:57:54.436Z,1.55
2022-08-07T15:00:20.224Z,1.80
2022-08-07T15:03:18.946Z,2.22
2022-08-07T15:08:54.753Z,2.00
2022-08-07T15:11:54.322Z,2.22
2022-08-07T15:14:15.347Z,2.05
2022-08-07T15:16:54.870Z,1.92
2022-08-07T15:20:23.541Z,1.90
2022-08-07T15:22:23.175Z,2.10
2022-08-07T15:25:12.959Z,2.17
2022-08-07T15:28:32.367Z,2.10
2022-08-07T15:30:34.562Z,1.77
2022-08-07T15:36:01.506Z,1.83
2022-08-07T15:38:59.138Z,2.00
2022-08-07T15:44:14.981Z,2.05
2022-08-07T15:52:29.995Z,2.22
2022-08-07T15:55:02.739Z,1.75
2022-08-07T15:57:47.407Z,1.52
2022-08-07T16:00:32.031Z,2.00
2022-08-07T16:03:03.483Z,1.70
2022-08-07T16:05:31.693Z,1.90
2022-08-07T16:08:32.271Z,2.00
2022-08-07T16:10:57.205Z,1.75
2022-08-07T16:13:57.926Z,1.70
2022-08-07T16:16:47.736Z,2.00
2022-08-07T16:19:43.204Z,1.90
2022-08-07T16:22:36.461Z,2.15
2022-08-07T16:25:22.757Z,1.95
2022-08-07T16:27:57.314Z,1.85
2022-08-07T16:30:31.824Z,1.83
2022-08-07T16:34:03.396Z,1.98
2022-08-07T16:35:52.403Z,2.08
2022-08-07T16:39:00.055Z,2.00
2022-08-07T16:41:41.773Z,2.10
2022-08-07T16:44:46.952Z,1.88
2022-08-07T16:47:49.761Z,1.88
2022-08-07T16:50:39.213Z,1.77
2022-08-07T16:54:01.213Z,2.13
2022-08-07T16:56:33.297Z,1.92
2022-08-07T16:59:10.591Z,1.95
2022-08-07T17:01:42.543Z,2.03
2022-08-07T17:04:24.553Z,1.52
2022-08-07T17:07:02.811Z,1.70
2022-08-07T17:10:06.884Z,1.70
2022-08-07T17:12:33.569Z,1.30
2022-08-07T17:15:05.171Z,1.65
2022-08-07T17:17:46.080Z,1.60
2022-08-07T17:20:20.841Z,1.55
2022-08-07T17:22:57.179Z,1.55
2022-08-07T17:25:51.750Z,1.48
2022-08-07T17:28:19.312Z,1.38
2022-08-07T17:30:58.049Z,1.50
2022-08-07T17:34:10.083Z,1.42
2022-08-07T17:36:20.816Z,1.40
2022-08-07T17:38:54.523Z,1.58
2022-08-07T17:42:04.379Z,1.30
2022-08-07T17:44:34.141Z,1.20
2022-08-07T17:47:17.054Z,1.08
2022-08-07T17:50:01.072Z,1.10
2022-08-07T17:52:35.093Z,0.85
2022-08-07T17:55:12.801Z,1.23
2022-08-07T17:57:56.513Z,1.20
2022-08-07T18:00:34.462Z,1.00
2022-08-07T18:03:21.529Z,1.00
2022-08-07T18:06:03.092Z,1.05
2022-08-07T18:09:00.647Z,1.30
2022-08-07T18:12:06.514Z,1.10
2022-08-07T18:14:23.904Z,1.30
2022-08-07T18:16:58.241Z,1.30
2022-08-07T18:21:10.229Z,1.50
2022-08-07T18:22:26.954Z,1.55
2022-08-07T18:25:01.618Z,1.30
2022-08-07T18:27:59.595Z,1.40
2022-08-07T18:30:36.761Z,1.27
2022-08-07T18:33:28.554Z,1.08
2022-08-07T18:36:05.940Z,1.60
2022-08-07T18:38:57.914Z,1.60
2022-08-07T18:41:45.074Z,1.50
2022-08-07T18:44:24.414Z,1.85
2022-08-07T18:47:00.008Z,1.30
2022-08-07T18:50:30.758Z,1.38
2022-08-07T18:52:53.029Z,1.40
2022-08-07T18:55:42.784Z,1.58
2022-08-07T18:58:38.664Z,1.73
2022-08-07T19:02:18.793Z,1.67
2022-08-07T19:04:09.832Z,1.77
2022-08-07T19:06:53.122Z,1.80
2022-08-07T19:09:56.790Z,1.60
2022-08-07T19:14:58.657Z,1.88
2022-08-07T19:18:01.067Z,1.63
2022-08-07T19:20:32.524Z,1.65
2022-08-07T19:23:18.229Z,1.60
2022-08-07T19:26:24.573Z,2.03
2022-08-07T19:30:56.981Z,2.17
2022-08-07T19:32:01.158Z,1.85
2022-08-07T19:34:32.401Z,1.90
2022-08-07T19:37:09.889Z,2.10
2022-08-07T19:39:56.672Z,2.00
2022-08-07T19:42:31.533Z,2.42
2022-08-07T19:45:00.730Z,2.13
2022-08-07T19:47:37.850Z,2.13
2022-08-07T19:50:43.730Z,2.25
2022-08-07T19:54:31.863Z,1.95
2022-08-07T19:55:58.961Z,2.38
2022-08-07T19:58:31.046Z,2.92
2022-08-07T20:01:01.921Z,2.63
2022-08-07T20:03:35.734Z,2.60
2022-08-07T20:06:06.141Z,2.50
2022-08-07T20:08:34.435Z,2.45
2022-08-07T20:11:03.954Z,2.53
2022-08-07T20:13:42.344Z,2.47
2022-08-07T20:16:15.910Z,2.65
2022-08-07T20:19:00.299Z,2.72
2022-08-07T20:21:42.144Z,2.45
2022-08-07T20:24:17.805Z,2.55
2022-08-07T20:26:50.120Z,2.40
2022-08-07T20:29:48.093Z,2.50
2022-08-07T20:32:22.942Z,2.53
2022-08-07T20:34:54.774Z,2.30
2022-08-07T20:37:29.266Z,2.53
2022-08-07T20:40:02.340Z,2.92
2022-08-07T20:42:32.543Z,3.42
2022-08-07T20:45:04.562Z,2.92
2022-08-07T20:47:56.316Z,2.88
2022-08-07T20:50:27.842Z,2.70
2022-08-07T20:52:57.701Z,3.05
2022-08-07T20:55:25.677Z,2.85
2022-08-07T20:58:02.348Z,2.70
2022-08-07T21:00:41.870Z,3.60
2022-08-07T21:03:11.603Z,2.80
2022-08-07T21:05:54.648Z,3.40
2022-08-07T21:08:37.139Z,2.78
2022-08-07T21:11:10.885Z,2.83
2022-08-07T21:13:57.518Z,3.28
2022-08-07T21:16:46.696Z,3.30
2022-08-07T21:19:32.399Z,3.28
2022-08-07T21:22:14.750Z,3.33
2022-08-07T21:24:51.666Z,3.28
2022-08-07T21:27:20.779Z,3.97
2022-08-07T21:29:53.227Z,3.42
2022-08-07T21:32:47.199Z,3.88
2022-08-07T21:35:13.457Z,3.70
2022-08-07T21:37:58.714Z,3.85
2022-08-07T21:40:35.887Z,4.07
2022-08-07T21:43:07.660Z,4.40
2022-08-07T21:46:08.842Z,3.35
2022-08-07T21:48:42.261Z,4.40
2022-08-07T21:51:19.751Z,4.43
2022-08-07T21:53:53.975Z,3.70
2022-08-07T21:56:40.205Z,4.50
2022-08-07T21:59:23.024Z,4.32
2022-08-07T22:02:11.129Z,4.63
2022-08-07T22:04:52.611Z,4.60
2022-08-07T22:09:54.317Z,5.10
2022-08-07T22:12:27.473Z,4.82
2022-08-07T22:15:03.937Z,5.30
2022-08-07T22:17:55.980Z,5.43
2022-08-07T22:20:28.349Z,5.10
2022-08-07T22:23:01.509Z,4.93
2022-08-07T22:25:36.745Z,5.25
2022-08-07T22:28:30.281Z,5.50
2022-08-07T22:30:58.156Z,5.20
2022-08-07T22:33:52.416Z,6.82
2022-08-07T22:36:25.588Z,5.90
2022-08-07T22:38:55.839Z,5.53
2022-08-07T22:41:29.099Z,6.15
2022-08-07T22:44:18.355Z,5.50
2022-08-07T22:47:04.468Z,6.10
2022-08-07T22:49:54.139Z,5.82
2022-08-07T22:52:37.487Z,6.22
2022-08-07T22:55:23.080Z,6.00
2022-08-07T22:58:02.719Z,5.90
2022-08-07T23:00:35.364Z,5.75
2022-08-07T23:03:13.695Z,6.60
2022-08-07T23:06:09.463Z,6.75
2022-08-07T23:10:00.803Z,6.22
2022-08-07T23:11:59.404Z,6.45
2022-08-07T23:14:41.289Z,6.47
2022-08-07T23:17:32.753Z,6.35
2022-08-07T23:20:51.374Z,6.60
2022-08-07T23:24:06.527Z,7.00
2022-08-07T23:26:35.864Z,6.63
2022-08-07T23:29:44.019Z,6.97
2022-08-07T23:34:20.181Z,7.25
2022-08-07T23:35:05.245Z,6.45
2022-08-07T23:37:38.672Z,7.32
2022-08-07T23:40:35.215Z,7.15
2022-08-07T23:43:22.333Z,7.38
2022-08-07T23:46:03.120Z,7.25
2022-08-07T23:48:47.444Z,7.15
2022-08-07T23:53:00.258Z,7.20
2022-08-07T23:54:11.681Z,7.13
2022-08-07T23:57:01.943Z,7.07
